createdAt,value
2022-08-14T00:04:56.971Z,2.78
2022-08-14T00:10:49.364Z,3.00
2022-08-14T00:20:41.155Z,3.30
2022-08-14T00:26:00.304Z,3.67
2022-08-14T00:31:09.625Z,3.67
2022-08-14T00:36:37.141Z,3.78
2022-08-14T00:41:34.176Z,3.67
2022-08-14T00:46:37.790Z,3.55
2022-08-14T00:51:41.885Z,3.70
2022-08-14T00:56:44.289Z,3.22
2022-08-14T01:01:46.515Z,3.45
2022-08-14T01:06:52.063Z,3.65
2022-08-14T01:12:03.358Z,3.58
2022-08-14T01:17:05.405Z,3.53
2022-08-14T01:22:12.561Z,3.75
2022-08-14T01:27:19.813Z,5.72
2022-08-14T01:32:24.652Z,4.47
2022-08-14T01:37:28.819Z,3.75
2022-08-14T01:53:08.245Z,3.85
2022-08-14T01:58:19.980Z,3.90
2022-08-14T02:03:30.873Z,3.53
2022-08-14T02:08:35.203Z,4.22
2022-08-14T02:13:37.482Z,4.10
2022-08-14T02:18:40.035Z,4.18
2022-08-14T02:23:42.942Z,4.40
2022-08-14T02:28:56.893Z,4.13
2022-08-14T02:34:03.921Z,4.68
2022-08-14T02:39:20.702Z,4.22
2022-08-14T02:44:29.803Z,4.30
2022-08-14T02:49:34.232Z,4.22
2022-08-14T02:54:36.512Z,3.33
2022-08-14T02:59:40.464Z,4.30
2022-08-14T03:04:47.719Z,3.70
2022-08-14T03:10:27.539Z,4.50
2022-08-14T03:15:16.586Z,4.25
2022-08-14T03:20:22.650Z,4.18
2022-08-14T03:25:24.948Z,4.18
2022-08-14T03:30:37.144Z,5.43
2022-08-14T03:36:05.205Z,4.63
2022-08-14T03:46:52.216Z,4.97
2022-08-14T03:51:37.836Z,4.90
2022-08-14T03:56:44.615Z,5.80
2022-08-14T04:01:58.060Z,5.30
2022-08-14T04:07:04.277Z,5.25
2022-08-14T04:12:08.430Z,5.45
2022-08-14T04:17:15.732Z,5.13
2022-08-14T04:22:22.466Z,4.95
2022-08-14T04:27:25.307Z,6.40
2022-08-14T04:32:58.105Z,5.40
2022-08-14T04:43:39.861Z,6.03
2022-08-14T04:48:43.823Z,5.45
2022-08-14T04:58:59.302Z,5.97
2022-08-14T05:04:04.613Z,6.32
2022-08-14T05:09:13.847Z,6.30
2022-08-14T05:14:46.881Z,6.90
2022-08-14T05:19:44.997Z,6.35
2022-08-14T05:25:04.282Z,7.00
2022-08-14T05:30:07.156Z,7.13
2022-08-14T05:35:11.743Z,7.20
2022-08-14T05:40:16.926Z,6.72
2022-08-14T05:45:20.882Z,6.72
2022-08-14T05:50:24.494Z,6.60
2022-08-14T05:55:31.426Z,7.35
2022-08-14T06:00:39.633Z,7.22
2022-08-14T06:05:42.095Z,7.15
2022-08-14T06:10:44.355Z,8.32
2022-08-14T06:15:46.907Z,9.73
2022-08-14T06:20:49.041Z,9.13
2022-08-14T06:25:52.677Z,9.02
2022-08-14T06:30:55.962Z,8.27
2022-08-14T06:35:58.290Z,7.97
2022-08-14T06:41:00.917Z,7.45
2022-08-14T06:46:04.246Z,7.82
2022-08-14T06:51:06.171Z,6.95
2022-08-14T06:56:07.989Z,6.93
2022-08-14T07:01:34.215Z,7.55
2022-08-14T07:06:46.709Z,6.10
2022-08-14T07:11:49.707Z,5.00
2022-08-14T07:16:51.489Z,3.40
2022-08-14T07:21:53.288Z,4.05
2022-08-14T07:26:55.517Z,3.08
2022-08-14T07:31:57.373Z,3.40
2022-08-14T07:37:01.205Z,3.08
2022-08-14T07:42:03.360Z,3.30
2022-08-14T07:47:05.477Z,2.63
2022-08-14T07:52:08.239Z,3.00
2022-08-14T07:57:12.028Z,3.17
2022-08-14T08:02:18.446Z,2.97
2022-08-14T08:07:29.909Z,3.30
2022-08-14T08:12:34.582Z,3.22
2022-08-14T08:17:42.399Z,3.22
2022-08-14T08:23:00.591Z,2.75
2022-08-14T08:28:19.745Z,3.30
2022-08-14T08:33:32.221Z,3.00
2022-08-14T08:39:16.286Z,3.03
2022-08-14T08:49:52.832Z,3.10
2022-08-14T08:55:04.967Z,2.85
2022-08-14T09:00:25.216Z,2.88
2022-08-14T09:05:28.773Z,2.80
2022-08-14T09:10:32.606Z,2.83
2022-08-14T09:15:42.478Z,2.70
2022-08-14T09:20:50.094Z,2.60
2022-08-14T09:26:00.958Z,2.88
2022-08-14T09:31:07.354Z,2.35
2022-08-14T09:36:30.957Z,2.88
2022-08-14T09:42:21.139Z,2.97
2022-08-14T09:48:03.869Z,3.03
2022-08-14T09:53:11.045Z,3.10
2022-08-14T09:58:22.778Z,3.15
2022-08-14T10:03:33.976Z,2.85
2022-08-14T10:09:04.181Z,3.08
2022-08-14T10:14:21.073Z,2.80
2022-08-14T10:19:31.353Z,5.78
2022-08-14T10:24:40.448Z,3.53
2022-08-14T10:29:49.391Z,14.60
2022-08-14T10:34:52.919Z,6.50
2022-08-14T10:40:01.590Z,3.60
2022-08-14T10:45:04.946Z,3.58
2022-08-14T10:50:07.745Z,3.40
2022-08-14T10:55:19.346Z,3.53
2022-08-14T11:00:29.943Z,3.40
2022-08-14T11:05:41.870Z,3.38
2022-08-14T11:10:48.124Z,2.72
2022-08-14T11:15:50.556Z,3.60
2022-08-14T11:20:56.518Z,3.08
2022-08-14T11:26:00.527Z,3.85
2022-08-14T11:31:05.136Z,3.67
2022-08-14T11:36:18.001Z,3.38
2022-08-14T11:41:20.635Z,4.05
2022-08-14T11:46:29.688Z,3.65
2022-08-14T11:51:36.259Z,4.30
2022-08-14T11:56:55.692Z,3.30
2022-08-14T12:01:58.090Z,3.72
2022-08-14T12:07:01.263Z,2.92
2022-08-14T12:12:35.933Z,3.50
2022-08-14T12:17:49.710Z,3.63
2022-08-14T12:22:54.939Z,3.72
2022-08-14T12:28:01.475Z,3.22
2022-08-14T12:33:06.664Z,3.30
2022-08-14T12:38:19.368Z,3.47
2022-08-14T12:43:23.353Z,3.38
2022-08-14T12:48:32.173Z,3.50
2022-08-14T12:53:38.490Z,2.80
2022-08-14T12:58:51.764Z,3.28
2022-08-14T13:04:23.722Z,3.50
2022-08-14T13:09:36.391Z,3.03
2022-08-14T13:14:45.884Z,3.10
2022-08-14T13:19:49.093Z,3.92
2022-08-14T13:24:52.162Z,3.00
2022-08-14T13:29:57.802Z,3.10
2022-08-14T13:35:01.275Z,3.63
2022-08-14T13:40:06.069Z,3.35
2022-08-14T13:45:09.565Z,3.35
2022-08-14T13:50:15.730Z,3.33
2022-08-14T13:55:25.649Z,3.00
2022-08-14T14:00:35.891Z,3.05
2022-08-14T14:05:56.081Z,3.08
2022-08-14T14:10:59.205Z,3.08
2022-08-14T14:16:06.311Z,2.97
2022-08-14T14:21:09.115Z,3.00
2022-08-14T14:26:19.988Z,3.55
2022-08-14T14:31:30.229Z,2.95
2022-08-14T14:36:34.253Z,2.70
2022-08-14T14:41:43.711Z,2.40
2022-08-14T14:46:50.272Z,2.88
2022-08-14T14:51:52.901Z,2.58
2022-08-14T14:56:56.646Z,2.90
2022-08-14T15:02:06.505Z,2.70
2022-08-14T15:07:10.728Z,2.58
2022-08-14T15:12:34.523Z,2.67
2022-08-14T15:17:40.903Z,2.80
2022-08-14T15:22:51.178Z,2.85
2022-08-14T15:27:54.574Z,2.80
2022-08-14T15:32:56.899Z,2.28
2022-08-14T15:38:03.902Z,2.63
2022-08-14T15:43:12.873Z,2.67
2022-08-14T15:48:22.316Z,2.75
2022-08-14T15:53:25.253Z,2.72
2022-08-14T15:58:33.257Z,2.75
2022-08-14T16:03:42.310Z,2.58
2022-08-14T16:08:50.267Z,2.30
2022-08-14T16:13:59.436Z,2.85
2022-08-14T16:19:07.251Z,2.03
2022-08-14T16:24:27.093Z,2.83
2022-08-14T16:29:35.646Z,2.92
2022-08-14T16:34:44.711Z,3.25
2022-08-14T16:39:49.719Z,2.63
2022-08-14T16:44:58.155Z,3.00
2022-08-14T16:50:03.313Z,3.13
2022-08-14T16:55:08.524Z,3.38
2022-08-14T17:00:32.999Z,2.83
2022-08-14T17:05:47.003Z,4.13
2022-08-14T17:10:52.352Z,3.28
2022-08-14T17:16:24.743Z,3.00
2022-08-14T17:21:32.369Z,2.60
2022-08-14T17:26:44.019Z,2.88
2022-08-14T17:31:57.993Z,2.90
2022-08-14T17:37:03.730Z,2.67
2022-08-14T17:42:13.561Z,2.88
2022-08-14T17:47:17.865Z,3.00
2022-08-14T17:52:34.873Z,2.67
2022-08-14T17:57:40.916Z,2.70
2022-08-14T18:02:50.339Z,2.60
2022-08-14T18:08:31.313Z,2.87
2022-08-14T18:13:16.398Z,2.47
2022-08-14T18:18:18.158Z,2.58
2022-08-14T18:23:21.539Z,2.63
2022-08-14T18:28:51.375Z,2.65
2022-08-14T18:34:11.760Z,2.58
2022-08-14T18:39:25.443Z,3.00
2022-08-14T18:45:12.960Z,2.60
2022-08-14T18:50:27.752Z,2.95
2022-08-14T18:55:32.635Z,3.63
2022-08-14T19:00:40.382Z,2.50
2022-08-14T19:05:47.484Z,5.50
2022-08-14T19:10:52.411Z,7.35
2022-08-14T19:16:13.890Z,4.85
2022-08-14T19:21:26.314Z,5.47
2022-08-14T19:26:35.578Z,3.22
2022-08-14T19:31:42.662Z,3.03
2022-08-14T19:37:08.802Z,4.25
2022-08-14T19:42:14.876Z,4.40
2022-08-14T19:47:38.672Z,4.65
2022-08-14T19:52:43.183Z,3.70
2022-08-14T19:57:58.790Z,5.15
2022-08-14T20:03:10.162Z,4.38
2022-08-14T20:10:59.186Z,3.90
2022-08-14T20:13:38.685Z,4.07
2022-08-14T20:18:51.796Z,3.03
2022-08-14T20:24:31.017Z,3.25
2022-08-14T20:29:38.872Z,2.95
2022-08-14T20:34:51.235Z,3.05
2022-08-14T20:39:55.445Z,3.70
2022-08-14T20:45:23.800Z,3.38
2022-08-14T20:50:29.552Z,2.67
2022-08-14T20:55:37.209Z,3.08
2022-08-14T21:00:52.468Z,2.88
2022-08-14T21:06:01.368Z,3.95
2022-08-14T21:11:21.957Z,4.55
2022-08-14T21:16:32.947Z,3.67
2022-08-14T21:21:41.732Z,3.50
2022-08-14T21:26:52.324Z,3.30
2022-08-14T21:32:20.494Z,3.50
2022-08-14T21:37:23.568Z,2.83
2022-08-14T21:42:28.075Z,3.70
2022-08-14T21:47:31.528Z,3.30
2022-08-14T21:52:50.239Z,3.20
2022-08-14T21:58:46.132Z,2.97
2022-08-14T22:03:24.173Z,3.75
2022-08-14T22:08:27.323Z,3.72
2022-08-14T22:13:32.387Z,2.90
2022-08-14T22:18:34.369Z,3.42
2022-08-14T22:23:38.305Z,3.60
2022-08-14T22:28:44.944Z,2.67
2022-08-14T22:33:49.839Z,3.05
2022-08-14T22:38:51.769Z,4.95
2022-08-14T22:44:03.855Z,5.03
2022-08-14T22:49:16.659Z,7.32
2022-08-14T22:54:52.502Z,7.25
2022-08-14T22:59:51.921Z,3.45
2022-08-14T23:04:57.993Z,3.25
2022-08-14T23:10:32.492Z,5.40
2022-08-14T23:15:24.656Z,4.90
2022-08-14T23:20:33.654Z,5.53
2022-08-14T23:25:57.793Z,6.75
2022-08-14T23:31:05.702Z,6.25
2022-08-14T23:36:31.763Z,4.10
2022-08-14T23:41:45.991Z,3.50
2022-08-14T23:46:56.984Z,3.70
2022-08-14T23:52:56.203Z,3.88
2022-08-14T23:57:22.729Z,4.03
